sensor_id;sensor_type;location;lat;lon;timestamp;temperature;humidity
21559;DHT22;10940;48.890;8.240;2023-04-06T00:00:37;3.50;99.90
21559;DHT22;10940;48.890;8.240;2023-04-06T00:03:03;3.40;99.90
21559;DHT22;10940;48.890;8.240;2023-04-06T00:05:28;3.40;99.90
21559;DHT22;10940;48.890;8.240;2023-04-06T00:07:57;3.30;99.90
21559;DHT22;10940;48.890;8.240;2023-04-06T00:10:23;3.30;99.90
21559;DHT22;10940;48.890;8.240;2023-04-06T00:12:49;3.20;99.90
21559;DHT22;10940;48.890;8.240;2023-04-06T00:15:14;3.20;99.90
21559;DHT22;10940;48.890;8.240;2023-04-06T00:17:40;3.20;99.90
21559;DHT22;10940;48.890;8.240;2023-04-06T00:20:06;3.00;99.90
21559;DHT22;10940;48.890;8.240;2023-04-06T00:22:32;3.00;99.90
21559;DHT22;10940;48.890;8.240;2023-04-06T00:24:58;3.00;99.90
21559;DHT22;10940;48.890;8.240;2023-04-06T00:27:23;3.00;99.90
21559;DHT22;10940;48.890;8.240;2023-04-06T00:29:49;3.10;99.90
21559;DHT22;10940;48.890;8.240;2023-04-06T00:32:14;3.10;99.90
21559;DHT22;10940;48.890;8.240;2023-04-06T00:34:40;3.00;99.90
21559;DHT22;10940;48.890;8.240;2023-04-06T00:37:05;2.90;99.90
21559;DHT22;10940;48.890;8.240;2023-04-06T00:39:31;2.80;99.90
21559;DHT22;10940;48.890;8.240;2023-04-06T00:41:56;2.70;99.90
21559;DHT22;10940;48.890;8.240;2023-04-06T00:44:24;2.50;99.90
21559;DHT22;10940;48.890;8.240;2023-04-06T00:46:50;2.40;99.90
21559;DHT22;10940;48.890;8.240;2023-04-06T00:49:15;2.40;99.90
21559;DHT22;10940;48.890;8.240;2023-04-06T00:51:41;2.30;99.90
21559;DHT22;10940;48.890;8.240;2023-04-06T00:54:07;2.30;99.90
21559;DHT22;10940;48.890;8.240;2023-04-06T00:56:32;2.20;99.90
21559;DHT22;10940;48.890;8.240;2023-04-06T00:58:58;2.10;99.90
21559;DHT22;10940;48.890;8.240;2023-04-06T01:01:24;2.10;99.90
21559;DHT22;10940;48.890;8.240;2023-04-06T01:03:50;2.10;99.90
21559;DHT22;10940;48.890;8.240;2023-04-06T01:06:16;2.00;99.90
21559;DHT22;10940;48.890;8.240;2023-04-06T01:08:42;2.10;99.90
21559;DHT22;10940;48.890;8.240;2023-04-06T01:11:08;2.10;99.90
21559;DHT22;10940;48.890;8.240;2023-04-06T01:13:33;2.00;99.90
21559;DHT22;10940;48.890;8.240;2023-04-06T01:15:59;2.00;99.90
21559;DHT22;10940;48.890;8.240;2023-04-06T01:18:29;1.90;99.90
21559;DHT22;10940;48.890;8.240;2023-04-06T01:20:55;1.90;99.90
21559;DHT22;10940;48.890;8.240;2023-04-06T01:23:20;1.90;99.90
21559;DHT22;10940;48.890;8.240;2023-04-06T01:25:46;1.90;99.90
21559;DHT22;10940;48.890;8.240;2023-04-06T01:28:12;1.90;99.90
21559;DHT22;10940;48.890;8.240;2023-04-06T01:30:37;1.80;99.90
21559;DHT22;10940;48.890;8.240;2023-04-06T01:33:03;1.80;99.90
21559;DHT22;10940;48.890;8.240;2023-04-06T01:35:29;1.80;99.90
21559;DHT22;10940;48.890;8.240;2023-04-06T01:37:55;1.80;99.90
21559;DHT22;10940;48.890;8.240;2023-04-06T01:40:21;1.90;99.90
21559;DHT22;10940;48.890;8.240;2023-04-06T01:42:47;1.90;99.90
21559;DHT22;10940;48.890;8.240;2023-04-06T01:45:12;1.90;99.90
21559;DHT22;10940;48.890;8.240;2023-04-06T01:47:38;1.90;99.90
21559;DHT22;10940;48.890;8.240;2023-04-06T01:50:04;1.80;99.90
21559;DHT22;10940;48.890;8.240;2023-04-06T01:52:32;1.70;99.90
21559;DHT22;10940;48.890;8.240;2023-04-06T01:54:58;1.80;99.90
21559;DHT22;10940;48.890;8.240;2023-04-06T01:57:23;1.70;99.90
21559;DHT22;10940;48.890;8.240;2023-04-06T01:59:50;1.70;99.90
21559;DHT22;10940;48.890;8.240;2023-04-06T02:02:16;1.70;99.90
21559;DHT22;10940;48.890;8.240;2023-04-06T02:04:41;1.70;99.90
21559;DHT22;10940;48.890;8.240;2023-04-06T02:07:07;1.70;99.90
21559;DHT22;10940;48.890;8.240;2023-04-06T02:09:33;1.70;99.90
21559;DHT22;10940;48.890;8.240;2023-04-06T02:11:58;1.70;99.90
21559;DHT22;10940;48.890;8.240;2023-04-06T02:14:27;1.70;99.90
21559;DHT22;10940;48.890;8.240;2023-04-06T02:16:53;1.80;99.90
21559;DHT22;10940;48.890;8.240;2023-04-06T02:19:18;1.80;99.90
21559;DHT22;10940;48.890;8.240;2023-04-06T02:21:44;1.80;99.90
21559;DHT22;10940;48.890;8.240;2023-04-06T02:24:09;1.80;99.90
21559;DHT22;10940;48.890;8.240;2023-04-06T02:26:35;1.80;99.90
21559;DHT22;10940;48.890;8.240;2023-04-06T02:29:01;1.90;99.90
21559;DHT22;10940;48.890;8.240;2023-04-06T02:31:27;1.90;99.90
21559;DHT22;10940;48.890;8.240;2023-04-06T02:33:53;1.90;99.90
21559;DHT22;10940;48.890;8.240;2023-04-06T02:36:18;2.00;99.90
21559;DHT22;10940;48.890;8.240;2023-04-06T02:38:44;2.00;99.90
21559;DHT22;10940;48.890;8.240;2023-04-06T02:41:09;2.00;99.90
21559;DHT22;10940;48.890;8.240;2023-04-06T02:43:35;2.10;99.90
21559;DHT22;10940;48.890;8.240;2023-04-06T02:46:01;2.10;99.90
21559;DHT22;10940;48.890;8.240;2023-04-06T02:48:26;2.10;99.90
21559;DHT22;10940;48.890;8.240;2023-04-06T02:50:52;2.10;99.90
21559;DHT22;10940;48.890;8.240;2023-04-06T02:53:17;2.20;99.90
21559;DHT22;10940;48.890;8.240;2023-04-06T02:55:43;2.10;99.90
21559;DHT22;10940;48.890;8.240;2023-04-06T02:58:08;2.10;99.90
21559;DHT22;10940;48.890;8.240;2023-04-06T03:00:34;2.10;99.90
21559;DHT22;10940;48.890;8.240;2023-04-06T03:03:01;2.10;99.90
21559;DHT22;10940;48.890;8.240;2023-04-06T03:05:26;2.20;99.90
21559;DHT22;10940;48.890;8.240;2023-04-06T03:07:52;2.20;99.90
21559;DHT22;10940;48.890;8.240;2023-04-06T03:10:17;2.20;99.90
21559;DHT22;10940;48.890;8.240;2023-04-06T03:12:43;2.20;99.90
21559;DHT22;10940;48.890;8.240;2023-04-06T03:15:09;2.10;99.90
21559;DHT22;10940;48.890;8.240;2023-04-06T03:17:35;2.10;99.90
21559;DHT22;10940;48.890;8.240;2023-04-06T03:20:01;2.10;99.90
21559;DHT22;10940;48.890;8.240;2023-04-06T03:22:28;2.00;99.90
21559;DHT22;10940;48.890;8.240;2023-04-06T03:24:53;2.00;99.90
21559;DHT22;10940;48.890;8.240;2023-04-06T03:27:19;2.00;99.90
21559;DHT22;10940;48.890;8.240;2023-04-06T03:29:45;2.00;99.90
21559;DHT22;10940;48.890;8.240;2023-04-06T03:32:11;1.90;99.90
21559;DHT22;10940;48.890;8.240;2023-04-06T03:34:37;1.90;99.90
21559;DHT22;10940;48.890;8.240;2023-04-06T03:37:03;1.90;99.90
21559;DHT22;10940;48.890;8.240;2023-04-06T03:39:28;1.90;99.90
21559;DHT22;10940;48.890;8.240;2023-04-06T03:41:54;1.90;99.90
21559;DHT22;10940;48.890;8.240;2023-04-06T03:44:19;1.90;99.90
21559;DHT22;10940;48.890;8.240;2023-04-06T03:46:45;1.90;99.90
21559;DHT22;10940;48.890;8.240;2023-04-06T03:49:11;1.90;99.90
21559;DHT22;10940;48.890;8.240;2023-04-06T03:51:36;1.90;99.90
21559;DHT22;10940;48.890;8.240;2023-04-06T03:54:02;1.90;99.90
21559;DHT22;10940;48.890;8.240;2023-04-06T03:56:27;1.80;99.90
21559;DHT22;10940;48.890;8.240;2023-04-06T03:58:53;1.70;99.90
21559;DHT22;10940;48.890;8.240;2023-04-06T04:01:18;1.70;99.90
21559;DHT22;10940;48.890;8.240;2023-04-06T04:03:44;1.70;99.90
21559;DHT22;10940;48.890;8.240;2023-04-06T04:06:09;1.70;99.90
21559;DHT22;10940;48.890;8.240;2023-04-06T04:08:35;1.70;99.90
21559;DHT22;10940;48.890;8.240;2023-04-06T04:11:01;1.70;99.90
21559;DHT22;10940;48.890;8.240;2023-04-06T04:13:27;1.70;99.90
21559;DHT22;10940;48.890;8.240;2023-04-06T04:15:52;1.80;99.90
21559;DHT22;10940;48.890;8.240;2023-04-06T04:18:18;1.70;99.90
21559;DHT22;10940;48.890;8.240;2023-04-06T04:20:44;1.70;99.90
21559;DHT22;10940;48.890;8.240;2023-04-06T04:23:10;1.70;99.90
21559;DHT22;10940;48.890;8.240;2023-04-06T04:25:36;1.70;99.90
21559;DHT22;10940;48.890;8.240;2023-04-06T04:28:02;1.70;99.90
21559;DHT22;10940;48.890;8.240;2023-04-06T04:30:27;1.60;99.90
21559;DHT22;10940;48.890;8.240;2023-04-06T04:32:53;1.50;99.90
21559;DHT22;10940;48.890;8.240;2023-04-06T04:35:19;1.40;99.90
21559;DHT22;10940;48.890;8.240;2023-04-06T04:37:45;1.40;99.90
21559;DHT22;10940;48.890;8.240;2023-04-06T04:40:11;1.40;99.90
21559;DHT22;10940;48.890;8.240;2023-04-06T04:42:36;1.30;99.90
21559;DHT22;10940;48.890;8.240;2023-04-06T04:45:02;1.20;99.90
21559;DHT22;10940;48.890;8.240;2023-04-06T04:47:28;1.20;99.90
21559;DHT22;10940;48.890;8.240;2023-04-06T04:49:53;1.10;99.90
21559;DHT22;10940;48.890;8.240;2023-04-06T04:52:19;1.00;99.90
21559;DHT22;10940;48.890;8.240;2023-04-06T04:54:45;0.90;99.90
21559;DHT22;10940;48.890;8.240;2023-04-06T04:57:12;0.80;99.90
21559;DHT22;10940;48.890;8.240;2023-04-06T04:59:38;0.80;99.90
21559;DHT22;10940;48.890;8.240;2023-04-06T05:02:03;0.70;99.90
21559;DHT22;10940;48.890;8.240;2023-04-06T05:04:29;0.70;99.90
21559;DHT22;10940;48.890;8.240;2023-04-06T05:07:05;0.70;99.90
21559;DHT22;10940;48.890;8.240;2023-04-06T05:09:31;0.70;99.90
21559;DHT22;10940;48.890;8.240;2023-04-06T05:11:58;0.70;99.90
21559;DHT22;10940;48.890;8.240;2023-04-06T05:14:23;0.70;99.90
21559;DHT22;10940;48.890;8.240;2023-04-06T05:16:49;0.70;99.90
21559;DHT22;10940;48.890;8.240;2023-04-06T05:19:15;0.70;99.90
21559;DHT22;10940;48.890;8.240;2023-04-06T05:21:41;0.70;99.90
21559;DHT22;10940;48.890;8.240;2023-04-06T05:24:06;0.70;99.90
21559;DHT22;10940;48.890;8.240;2023-04-06T05:26:32;0.80;99.90
21559;DHT22;10940;48.890;8.240;2023-04-06T05:28:58;0.80;99.90
21559;DHT22;10940;48.890;8.240;2023-04-06T05:31:23;0.80;99.90
21559;DHT22;10940;48.890;8.240;2023-04-06T05:33:49;0.80;99.90
21559;DHT22;10940;48.890;8.240;2023-04-06T05:36:15;0.80;99.90
21559;DHT22;10940;48.890;8.240;2023-04-06T05:38:41;0.90;99.90
21559;DHT22;10940;48.890;8.240;2023-04-06T05:41:06;0.90;99.90
21559;DHT22;10940;48.890;8.240;2023-04-06T05:43:32;1.00;99.90
21559;DHT22;10940;48.890;8.240;2023-04-06T05:45:57;1.00;99.90
21559;DHT22;10940;48.890;8.240;2023-04-06T05:48:23;1.10;99.90
21559;DHT22;10940;48.890;8.240;2023-04-06T05:50:49;1.10;99.90
21559;DHT22;10940;48.890;8.240;2023-04-06T05:53:16;1.20;99.90
21559;DHT22;10940;48.890;8.240;2023-04-06T05:55:41;1.30;99.90
21559;DHT22;10940;48.890;8.240;2023-04-06T05:58:07;1.40;99.90
21559;DHT22;10940;48.890;8.240;2023-04-06T06:00:33;1.50;99.90
21559;DHT22;10940;48.890;8.240;2023-04-06T06:02:58;1.50;99.90
21559;DHT22;10940;48.890;8.240;2023-04-06T06:05:24;1.60;99.90
21559;DHT22;10940;48.890;8.240;2023-04-06T06:07:50;1.70;99.90
21559;DHT22;10940;48.890;8.240;2023-04-06T06:10:15;1.80;99.90
21559;DHT22;10940;48.890;8.240;2023-04-06T06:12:41;2.00;99.90
21559;DHT22;10940;48.890;8.240;2023-04-06T06:15:07;2.10;99.90
21559;DHT22;10940;48.890;8.240;2023-04-06T06:17:32;2.20;99.90
21559;DHT22;10940;48.890;8.240;2023-04-06T06:19:59;2.40;99.90
21559;DHT22;10940;48.890;8.240;2023-04-06T06:22:24;2.40;99.90
21559;DHT22;10940;48.890;8.240;2023-04-06T06:24:50;2.50;99.90
21559;DHT22;10940;48.890;8.240;2023-04-06T06:27:16;2.60;99.90
21559;DHT22;10940;48.890;8.240;2023-04-06T06:29:41;2.70;99.90
21559;DHT22;10940;48.890;8.240;2023-04-06T06:32:07;2.80;99.90
21559;DHT22;10940;48.890;8.240;2023-04-06T06:34:34;2.90;99.90
21559;DHT22;10940;48.890;8.240;2023-04-06T06:37:00;3.00;99.90
21559;DHT22;10940;48.890;8.240;2023-04-06T06:39:27;3.20;99.90
21559;DHT22;10940;48.890;8.240;2023-04-06T06:41:53;3.20;99.90
21559;DHT22;10940;48.890;8.240;2023-04-06T06:44:20;3.30;99.90
21559;DHT22;10940;48.890;8.240;2023-04-06T06:46:47;3.40;99.90
21559;DHT22;10940;48.890;8.240;2023-04-06T06:49:12;3.50;99.90
21559;DHT22;10940;48.890;8.240;2023-04-06T06:51:39;3.60;99.90
21559;DHT22;10940;48.890;8.240;2023-04-06T06:54:05;3.70;99.90
21559;DHT22;10940;48.890;8.240;2023-04-06T06:56:31;3.90;99.90
21559;DHT22;10940;48.890;8.240;2023-04-06T06:58:56;4.00;99.90
21559;DHT22;10940;48.890;8.240;2023-04-06T07:01:22;4.10;99.90
21559;DHT22;10940;48.890;8.240;2023-04-06T07:03:47;4.30;99.90
21559;DHT22;10940;48.890;8.240;2023-04-06T07:06:13;4.40;99.90
21559;DHT22;10940;48.890;8.240;2023-04-06T07:08:39;4.40;99.90
21559;DHT22;10940;48.890;8.240;2023-04-06T07:11:04;4.50;99.90
21559;DHT22;10940;48.890;8.240;2023-04-06T07:13:30;4.60;99.90
21559;DHT22;10940;48.890;8.240;2023-04-06T07:15:56;4.60;99.90
21559;DHT22;10940;48.890;8.240;2023-04-06T07:18:22;4.70;99.90
21559;DHT22;10940;48.890;8.240;2023-04-06T07:20:48;4.80;99.90
21559;DHT22;10940;48.890;8.240;2023-04-06T07:23:13;4.90;99.90
21559;DHT22;10940;48.890;8.240;2023-04-06T07:25:39;5.00;99.90
21559;DHT22;10940;48.890;8.240;2023-04-06T07:28:05;5.20;99.90
21559;DHT22;10940;48.890;8.240;2023-04-06T07:30:30;5.30;99.90
21559;DHT22;10940;48.890;8.240;2023-04-06T07:32:56;5.40;99.90
21559;DHT22;10940;48.890;8.240;2023-04-06T07:35:23;5.40;99.90
21559;DHT22;10940;48.890;8.240;2023-04-06T07:37:49;5.50;99.90
21559;DHT22;10940;48.890;8.240;2023-04-06T07:40:15;5.70;99.90
21559;DHT22;10940;48.890;8.240;2023-04-06T07:42:41;5.80;99.90
21559;DHT22;10940;48.890;8.240;2023-04-06T07:45:06;5.90;99.90
21559;DHT22;10940;48.890;8.240;2023-04-06T07:47:32;6.10;99.90
21559;DHT22;10940;48.890;8.240;2023-04-06T07:49:58;6.30;99.90
21559;DHT22;10940;48.890;8.240;2023-04-06T07:52:24;6.50;99.90
21559;DHT22;10940;48.890;8.240;2023-04-06T07:54:49;6.60;99.90
21559;DHT22;10940;48.890;8.240;2023-04-06T07:57:15;6.80;99.90
21559;DHT22;10940;48.890;8.240;2023-04-06T07:59:43;6.80;99.90
21559;DHT22;10940;48.890;8.240;2023-04-06T08:02:09;7.00;99.90
21559;DHT22;10940;48.890;8.240;2023-04-06T08:04:35;7.10;99.90
21559;DHT22;10940;48.890;8.240;2023-04-06T08:07:01;7.10;99.90
21559;DHT22;10940;48.890;8.240;2023-04-06T08:09:27;7.20;99.90
21559;DHT22;10940;48.890;8.240;2023-04-06T08:11:53;7.20;99.90
21559;DHT22;10940;48.890;8.240;2023-04-06T08:14:18;7.30;99.90
21559;DHT22;10940;48.890;8.240;2023-04-06T08:16:44;7.40;99.90
21559;DHT22;10940;48.890;8.240;2023-04-06T08:19:10;7.60;99.90
21559;DHT22;10940;48.890;8.240;2023-04-06T08:21:36;7.60;99.90
21559;DHT22;10940;48.890;8.240;2023-04-06T08:24:02;7.70;99.90
21559;DHT22;10940;48.890;8.240;2023-04-06T08:26:28;7.80;99.90
21559;DHT22;10940;48.890;8.240;2023-04-06T08:28:54;7.90;99.90
21559;DHT22;10940;48.890;8.240;2023-04-06T08:31:19;8.00;99.90
21559;DHT22;10940;48.890;8.240;2023-04-06T08:33:45;8.00;99.90
21559;DHT22;10940;48.890;8.240;2023-04-06T08:36:14;8.10;99.90
21559;DHT22;10940;48.890;8.240;2023-04-06T08:38:41;8.20;99.90
21559;DHT22;10940;48.890;8.240;2023-04-06T08:41:12;8.20;99.90
21559;DHT22;10940;48.890;8.240;2023-04-06T08:43:43;8.40;99.90
21559;DHT22;10940;48.890;8.240;2023-04-06T08:46:10;8.50;99.90
21559;DHT22;10940;48.890;8.240;2023-04-06T08:48:38;8.60;99.90
21559;DHT22;10940;48.890;8.240;2023-04-06T08:51:04;8.60;99.90
21559;DHT22;10940;48.890;8.240;2023-04-06T08:53:29;8.80;99.90
21559;DHT22;10940;48.890;8.240;2023-04-06T08:55:58;8.90;99.90
21559;DHT22;10940;48.890;8.240;2023-04-06T08:58:24;9.00;99.90
21559;DHT22;10940;48.890;8.240;2023-04-06T09:00:51;9.20;99.90
21559;DHT22;10940;48.890;8.240;2023-04-06T09:03:17;9.20;99.90
21559;DHT22;10940;48.890;8.240;2023-04-06T09:05:45;9.30;99.90
21559;DHT22;10940;48.890;8.240;2023-04-06T09:08:12;9.30;99.90
21559;DHT22;10940;48.890;8.240;2023-04-06T09:10:40;9.40;99.90
21559;DHT22;10940;48.890;8.240;2023-04-06T09:13:07;9.40;99.90
21559;DHT22;10940;48.890;8.240;2023-04-06T09:15:33;9.40;99.90
21559;DHT22;10940;48.890;8.240;2023-04-06T09:17:59;9.50;99.90
21559;DHT22;10940;48.890;8.240;2023-04-06T09:20:26;9.60;99.90
21559;DHT22;10940;48.890;8.240;2023-04-06T09:22:54;9.80;99.90
21559;DHT22;10940;48.890;8.240;2023-04-06T09:25:22;9.90;99.90
21559;DHT22;10940;48.890;8.240;2023-04-06T09:28:00;9.80;99.90
21559;DHT22;10940;48.890;8.240;2023-04-06T09:30:26;9.90;99.90
21559;DHT22;10940;48.890;8.240;2023-04-06T09:32:54;9.90;99.90
21559;DHT22;10940;48.890;8.240;2023-04-06T09:35:20;10.00;99.90
21559;DHT22;10940;48.890;8.240;2023-04-06T09:37:48;10.10;99.90
21559;DHT22;10940;48.890;8.240;2023-04-06T09:40:14;10.20;99.90
21559;DHT22;10940;48.890;8.240;2023-04-06T09:42:45;10.40;99.90
21559;DHT22;10940;48.890;8.240;2023-04-06T09:45:12;10.50;99.90
21559;DHT22;10940;48.890;8.240;2023-04-06T09:47:40;10.70;99.10
21559;DHT22;10940;48.890;8.240;2023-04-06T09:50:07;10.70;98.60
21559;DHT22;10940;48.890;8.240;2023-04-06T09:52:46;10.70;99.60
21559;DHT22;10940;48.890;8.240;2023-04-06T09:55:23;10.90;99.90
21559;DHT22;10940;48.890;8.240;2023-04-06T09:57:57;11.00;98.30
21559;DHT22;10940;48.890;8.240;2023-04-06T10:00:25;11.10;99.90
21559;DHT22;10940;48.890;8.240;2023-04-06T10:03:14;11.20;98.70
21559;DHT22;10940;48.890;8.240;2023-04-06T10:05:54;11.30;98.10
21559;DHT22;10940;48.890;8.240;2023-04-06T10:08:20;11.30;99.40
21559;DHT22;10940;48.890;8.240;2023-04-06T10:10:50;11.40;99.30
21559;DHT22;10940;48.890;8.240;2023-04-06T10:13:16;11.40;98.90
21559;DHT22;10940;48.890;8.240;2023-04-06T10:15:42;11.60;97.80
21559;DHT22;10940;48.890;8.240;2023-04-06T10:18:08;11.70;97.80
21559;DHT22;10940;48.890;8.240;2023-04-06T10:21:00;11.70;98.00
21559;DHT22;10940;48.890;8.240;2023-04-06T10:23:31;11.70;98.60
21559;DHT22;10940;48.890;8.240;2023-04-06T10:26:00;11.80;96.70
21559;DHT22;10940;48.890;8.240;2023-04-06T10:28:31;11.90;96.90
21559;DHT22;10940;48.890;8.240;2023-04-06T10:31:01;12.00;96.80
21559;DHT22;10940;48.890;8.240;2023-04-06T10:33:27;12.10;96.50
21559;DHT22;10940;48.890;8.240;2023-04-06T10:35:53;12.30;96.60
21559;DHT22;10940;48.890;8.240;2023-04-06T10:38:20;12.40;94.10
21559;DHT22;10940;48.890;8.240;2023-04-06T10:40:47;12.40;95.70
21559;DHT22;10940;48.890;8.240;2023-04-06T10:43:19;12.60;94.70
21559;DHT22;10940;48.890;8.240;2023-04-06T10:45:55;12.80;94.10
21559;DHT22;10940;48.890;8.240;2023-04-06T10:48:21;13.00;92.40
21559;DHT22;10940;48.890;8.240;2023-04-06T10:50:51;13.10;93.20
21559;DHT22;10940;48.890;8.240;2023-04-06T10:53:24;13.20;92.30
21559;DHT22;10940;48.890;8.240;2023-04-06T10:55:51;13.30;93.60
21559;DHT22;10940;48.890;8.240;2023-04-06T10:58:17;13.40;92.80
21559;DHT22;10940;48.890;8.240;2023-04-06T11:00:47;13.50;93.50
21559;DHT22;10940;48.890;8.240;2023-04-06T11:03:13;13.40;90.80
21559;DHT22;10940;48.890;8.240;2023-04-06T11:05:49;13.40;91.60
21559;DHT22;10940;48.890;8.240;2023-04-06T11:08:35;13.50;91.30
21559;DHT22;10940;48.890;8.240;2023-04-06T11:11:10;13.50;94.70
21559;DHT22;10940;48.890;8.240;2023-04-06T11:13:49;13.70;93.20
21559;DHT22;10940;48.890;8.240;2023-04-06T11:16:16;13.80;93.20
21559;DHT22;10940;48.890;8.240;2023-04-06T11:21:43;14.10;91.00
21559;DHT22;10940;48.890;8.240;2023-04-06T11:29:16;14.20;90.80
21559;DHT22;10940;48.890;8.240;2023-04-06T11:31:45;14.20;89.90
21559;DHT22;10940;48.890;8.240;2023-04-06T11:34:17;14.20;89.30
21559;DHT22;10940;48.890;8.240;2023-04-06T11:36:44;14.10;89.50
21559;DHT22;10940;48.890;8.240;2023-04-06T11:39:12;14.00;90.00
21559;DHT22;10940;48.890;8.240;2023-04-06T11:41:37;14.00;88.40
21559;DHT22;10940;48.890;8.240;2023-04-06T11:44:03;13.90;87.90
21559;DHT22;10940;48.890;8.240;2023-04-06T11:46:30;14.00;89.20
21559;DHT22;10940;48.890;8.240;2023-04-06T11:49:00;14.10;87.80
21559;DHT22;10940;48.890;8.240;2023-04-06T11:51:27;14.20;87.90
21559;DHT22;10940;48.890;8.240;2023-04-06T11:53:53;14.50;90.10
21559;DHT22;10940;48.890;8.240;2023-04-06T11:56:25;14.60;86.90
21559;DHT22;10940;48.890;8.240;2023-04-06T11:58:52;14.90;90.80
21559;DHT22;10940;48.890;8.240;2023-04-06T12:01:17;15.10;84.70
21559;DHT22;10940;48.890;8.240;2023-04-06T12:03:43;15.30;84.30
21559;DHT22;10940;48.890;8.240;2023-04-06T12:06:08;15.60;82.60
21559;DHT22;10940;48.890;8.240;2023-04-06T12:08:34;15.90;80.20
21559;DHT22;10940;48.890;8.240;2023-04-06T12:11:00;16.10;83.90
21559;DHT22;10940;48.890;8.240;2023-04-06T12:13:25;16.30;76.00
21559;DHT22;10940;48.890;8.240;2023-04-06T12:15:51;16.30;81.40
21559;DHT22;10940;48.890;8.240;2023-04-06T12:18:17;16.30;79.90
21559;DHT22;10940;48.890;8.240;2023-04-06T12:20:42;16.30;83.80
21559;DHT22;10940;48.890;8.240;2023-04-06T12:23:09;16.30;80.10
21559;DHT22;10940;48.890;8.240;2023-04-06T12:25:34;16.30;77.80
21559;DHT22;10940;48.890;8.240;2023-04-06T12:28:00;16.40;83.70
21559;DHT22;10940;48.890;8.240;2023-04-06T12:30:26;16.20;80.40
21559;DHT22;10940;48.890;8.240;2023-04-06T12:32:51;16.20;82.00
21559;DHT22;10940;48.890;8.240;2023-04-06T12:35:17;16.20;80.20
21559;DHT22;10940;48.890;8.240;2023-04-06T12:37:43;16.20;71.20
21559;DHT22;10940;48.890;8.240;2023-04-06T12:40:09;16.00;72.20
21559;DHT22;10940;48.890;8.240;2023-04-06T12:42:36;15.90;68.30
21559;DHT22;10940;48.890;8.240;2023-04-06T12:45:02;15.70;71.30
21559;DHT22;10940;48.890;8.240;2023-04-06T12:47:27;15.60;73.00
21559;DHT22;10940;48.890;8.240;2023-04-06T12:49:54;15.70;68.40
21559;DHT22;10940;48.890;8.240;2023-04-06T12:52:20;15.60;71.20
21559;DHT22;10940;48.890;8.240;2023-04-06T12:54:45;15.70;69.30
21559;DHT22;10940;48.890;8.240;2023-04-06T12:57:12;15.70;70.60
21559;DHT22;10940;48.890;8.240;2023-04-06T12:59:38;15.80;68.60
21559;DHT22;10940;48.890;8.240;2023-04-06T13:02:04;15.80;71.40
21559;DHT22;10940;48.890;8.240;2023-04-06T13:04:30;15.90;72.70
21559;DHT22;10940;48.890;8.240;2023-04-06T13:06:55;15.80;71.40
21559;DHT22;10940;48.890;8.240;2023-04-06T13:09:21;15.80;70.20
21559;DHT22;10940;48.890;8.240;2023-04-06T13:11:46;15.90;71.00
21559;DHT22;10940;48.890;8.240;2023-04-06T13:14:12;16.00;73.90
21559;DHT22;10940;48.890;8.240;2023-04-06T13:16:38;16.10;74.40
21559;DHT22;10940;48.890;8.240;2023-04-06T13:19:03;16.30;72.80
21559;DHT22;10940;48.890;8.240;2023-04-06T13:21:29;16.40;75.70
21559;DHT22;10940;48.890;8.240;2023-04-06T13:23:55;16.50;75.60
21559;DHT22;10940;48.890;8.240;2023-04-06T13:26:21;16.60;71.60
21559;DHT22;10940;48.890;8.240;2023-04-06T13:28:46;16.30;78.20
21559;DHT22;10940;48.890;8.240;2023-04-06T13:31:12;16.30;74.50
21559;DHT22;10940;48.890;8.240;2023-04-06T13:33:38;16.30;73.20
21559;DHT22;10940;48.890;8.240;2023-04-06T13:36:06;16.20;72.00
21559;DHT22;10940;48.890;8.240;2023-04-06T13:38:33;16.10;73.00
21559;DHT22;10940;48.890;8.240;2023-04-06T13:40:59;16.10;76.60
21559;DHT22;10940;48.890;8.240;2023-04-06T13:43:25;16.10;76.50
21559;DHT22;10940;48.890;8.240;2023-04-06T13:45:53;16.10;76.50
21559;DHT22;10940;48.890;8.240;2023-04-06T13:48:20;16.10;75.20
21559;DHT22;10940;48.890;8.240;2023-04-06T13:50:46;16.10;71.70
21559;DHT22;10940;48.890;8.240;2023-04-06T13:53:12;15.90;74.10
21559;DHT22;10940;48.890;8.240;2023-04-06T13:55:38;15.90;75.60
21559;DHT22;10940;48.890;8.240;2023-04-06T13:58:03;15.90;77.10
21559;DHT22;10940;48.890;8.240;2023-04-06T14:00:29;15.90;74.10
21559;DHT22;10940;48.890;8.240;2023-04-06T14:02:55;15.90;76.10
21559;DHT22;10940;48.890;8.240;2023-04-06T14:05:21;15.90;77.50
21559;DHT22;10940;48.890;8.240;2023-04-06T14:07:46;15.80;78.10
21559;DHT22;10940;48.890;8.240;2023-04-06T14:10:12;15.80;78.90
21559;DHT22;10940;48.890;8.240;2023-04-06T14:12:43;15.70;77.80
21559;DHT22;10940;48.890;8.240;2023-04-06T14:15:12;15.70;74.30
21559;DHT22;10940;48.890;8.240;2023-04-06T14:17:37;15.60;76.30
21559;DHT22;10940;48.890;8.240;2023-04-06T14:20:05;15.50;75.40
21559;DHT22;10940;48.890;8.240;2023-04-06T14:22:31;15.50;77.40
21559;DHT22;10940;48.890;8.240;2023-04-06T14:24:56;15.40;75.40
21559;DHT22;10940;48.890;8.240;2023-04-06T14:27:23;15.30;74.60
21559;DHT22;10940;48.890;8.240;2023-04-06T14:29:49;15.20;75.50
21559;DHT22;10940;48.890;8.240;2023-04-06T14:32:15;15.00;76.80
21559;DHT22;10940;48.890;8.240;2023-04-06T14:34:40;14.90;77.60
21559;DHT22;10940;48.890;8.240;2023-04-06T14:37:06;14.80;75.40
21559;DHT22;10940;48.890;8.240;2023-04-06T14:39:31;14.80;79.40
21559;DHT22;10940;48.890;8.240;2023-04-06T14:41:57;14.80;76.20
21559;DHT22;10940;48.890;8.240;2023-04-06T14:44:22;14.70;77.00
21559;DHT22;10940;48.890;8.240;2023-04-06T14:46:48;14.70;81.20
21559;DHT22;10940;48.890;8.240;2023-04-06T14:49:13;14.70;77.50
21559;DHT22;10940;48.890;8.240;2023-04-06T14:51:39;14.70;78.40
21559;DHT22;10940;48.890;8.240;2023-04-06T14:54:05;14.70;79.80
21559;DHT22;10940;48.890;8.240;2023-04-06T14:56:31;14.60;80.90
21559;DHT22;10940;48.890;8.240;2023-04-06T14:58:58;14.60;81.90
21559;DHT22;10940;48.890;8.240;2023-04-06T15:01:24;14.70;80.10
21559;DHT22;10940;48.890;8.240;2023-04-06T15:03:50;14.70;81.40
21559;DHT22;10940;48.890;8.240;2023-04-06T15:06:17;14.70;78.90
21559;DHT22;10940;48.890;8.240;2023-04-06T15:08:43;14.60;77.00
21559;DHT22;10940;48.890;8.240;2023-04-06T15:11:10;14.60;82.90
21559;DHT22;10940;48.890;8.240;2023-04-06T15:13:36;14.60;81.90
21559;DHT22;10940;48.890;8.240;2023-04-06T15:16:01;14.60;83.90
21559;DHT22;10940;48.890;8.240;2023-04-06T15:18:27;14.50;82.90
21559;DHT22;10940;48.890;8.240;2023-04-06T15:20:52;14.50;84.10
21559;DHT22;10940;48.890;8.240;2023-04-06T15:23:18;14.50;82.80
21559;DHT22;10940;48.890;8.240;2023-04-06T15:25:44;14.50;83.40
21559;DHT22;10940;48.890;8.240;2023-04-06T15:28:10;14.50;83.10
21559;DHT22;10940;48.890;8.240;2023-04-06T15:30:36;14.40;81.80
21559;DHT22;10940;48.890;8.240;2023-04-06T15:33:03;14.40;83.40
21559;DHT22;10940;48.890;8.240;2023-04-06T15:35:30;14.30;84.30
21559;DHT22;10940;48.890;8.240;2023-04-06T15:37:56;14.30;84.10
21559;DHT22;10940;48.890;8.240;2023-04-06T15:40:23;14.30;84.00
21559;DHT22;10940;48.890;8.240;2023-04-06T15:42:49;14.30;85.00